sensor_id;sensor_type;location;lat;lon;timestamp;P1;durP1;ratioP1;P2;durP2;ratioP2
5157;SDS011;2598;52.364;9.772;2022-08-03T00:01:39;12.93;;;3.73;;
5157;SDS011;2598;52.364;9.772;2022-08-03T00:04:06;11.10;;;3.30;;
5157;SDS011;2598;52.364;9.772;2022-08-03T00:06:33;9.23;;;3.20;;
5157;SDS011;2598;52.364;9.772;2022-08-03T00:08:59;10.47;;;3.10;;
5157;SDS011;2598;52.364;9.772;2022-08-03T00:11:25;8.90;;;2.77;;
5157;SDS011;2598;52.364;9.772;2022-08-03T00:13:51;9.20;;;3.30;;
5157;SDS011;2598;52.364;9.772;2022-08-03T00:16:17;10.60;;;3.47;;
5157;SDS011;2598;52.364;9.772;2022-08-03T00:18:44;9.73;;;3.23;;
5157;SDS011;2598;52.364;9.772;2022-08-03T00:21:10;9.30;;;3.20;;
5157;SDS011;2598;52.364;9.772;2022-08-03T00:23:36;9.00;;;3.17;;
5157;SDS011;2598;52.364;9.772;2022-08-03T00:26:02;10.80;;;3.13;;
5157;SDS011;2598;52.364;9.772;2022-08-03T00:28:28;9.40;;;3.43;;
5157;SDS011;2598;52.364;9.772;2022-08-03T00:30:54;13.13;;;2.87;;
5157;SDS011;2598;52.364;9.772;2022-08-03T00:33:20;9.30;;;2.90;;
5157;SDS011;2598;52.364;9.772;2022-08-03T00:35:46;12.13;;;3.17;;
5157;SDS011;2598;52.364;9.772;2022-08-03T00:38:12;8.87;;;2.90;;
5157;SDS011;2598;52.364;9.772;2022-08-03T00:40:39;12.13;;;3.70;;
5157;SDS011;2598;52.364;9.772;2022-08-03T00:43:06;9.13;;;2.93;;
5157;SDS011;2598;52.364;9.772;2022-08-03T00:45:35;8.40;;;2.87;;
5157;SDS011;2598;52.364;9.772;2022-08-03T00:48:02;9.90;;;3.90;;
5157;SDS011;2598;52.364;9.772;2022-08-03T00:50:29;9.83;;;3.53;;
5157;SDS011;2598;52.364;9.772;2022-08-03T00:52:56;10.60;;;3.03;;
5157;SDS011;2598;52.364;9.772;2022-08-03T00:55:23;8.43;;;3.07;;
5157;SDS011;2598;52.364;9.772;2022-08-03T00:57:49;14.17;;;3.63;;
5157;SDS011;2598;52.364;9.772;2022-08-03T01:00:16;9.67;;;3.57;;
5157;SDS011;2598;52.364;9.772;2022-08-03T01:02:43;11.43;;;3.13;;
5157;SDS011;2598;52.364;9.772;2022-08-03T01:05:09;9.40;;;3.17;;
5157;SDS011;2598;52.364;9.772;2022-08-03T01:07:40;10.53;;;3.57;;
5157;SDS011;2598;52.364;9.772;2022-08-03T01:12:38;16.23;;;3.23;;
5157;SDS011;2598;52.364;9.772;2022-08-03T01:15:08;9.03;;;2.97;;
5157;SDS011;2598;52.364;9.772;2022-08-03T01:17:39;8.90;;;2.60;;
5157;SDS011;2598;52.364;9.772;2022-08-03T01:20:11;16.30;;;3.40;;
5157;SDS011;2598;52.364;9.772;2022-08-03T01:30:42;10.43;;;3.13;;
5157;SDS011;2598;52.364;9.772;2022-08-03T01:35:58;11.40;;;2.97;;
5157;SDS011;2598;52.364;9.772;2022-08-03T01:38:31;8.87;;;3.30;;
5157;SDS011;2598;52.364;9.772;2022-08-03T01:41:00;9.40;;;3.10;;
5157;SDS011;2598;52.364;9.772;2022-08-03T01:43:27;10.63;;;3.17;;
5157;SDS011;2598;52.364;9.772;2022-08-03T01:45:54;12.30;;;3.37;;
5157;SDS011;2598;52.364;9.772;2022-08-03T01:48:21;14.80;;;3.13;;
5157;SDS011;2598;52.364;9.772;2022-08-03T01:50:47;9.00;;;3.30;;
5157;SDS011;2598;52.364;9.772;2022-08-03T01:53:14;10.20;;;3.67;;
5157;SDS011;2598;52.364;9.772;2022-08-03T01:55:42;9.50;;;3.10;;
5157;SDS011;2598;52.364;9.772;2022-08-03T01:58:09;8.60;;;2.90;;
5157;SDS011;2598;52.364;9.772;2022-08-03T02:00:35;10.00;;;3.10;;
5157;SDS011;2598;52.364;9.772;2022-08-03T02:03:04;9.63;;;3.50;;
5157;SDS011;2598;52.364;9.772;2022-08-03T02:05:30;9.60;;;3.03;;
5157;SDS011;2598;52.364;9.772;2022-08-03T02:07:56;9.37;;;3.07;;
5157;SDS011;2598;52.364;9.772;2022-08-03T02:10:23;8.30;;;2.90;;
5157;SDS011;2598;52.364;9.772;2022-08-03T02:12:50;10.23;;;2.80;;
5157;SDS011;2598;52.364;9.772;2022-08-03T02:15:16;9.63;;;3.00;;
5157;SDS011;2598;52.364;9.772;2022-08-03T02:17:44;8.70;;;3.07;;
5157;SDS011;2598;52.364;9.772;2022-08-03T02:20:10;12.60;;;3.47;;
5157;SDS011;2598;52.364;9.772;2022-08-03T02:22:38;9.27;;;3.43;;
5157;SDS011;2598;52.364;9.772;2022-08-03T02:25:06;11.33;;;3.23;;
5157;SDS011;2598;52.364;9.772;2022-08-03T02:27:32;10.50;;;3.30;;
5157;SDS011;2598;52.364;9.772;2022-08-03T02:30:06;9.90;;;3.07;;
5157;SDS011;2598;52.364;9.772;2022-08-03T02:32:34;10.93;;;3.13;;
5157;SDS011;2598;52.364;9.772;2022-08-03T02:35:01;9.20;;;2.93;;
5157;SDS011;2598;52.364;9.772;2022-08-03T02:37:30;9.33;;;3.03;;
5157;SDS011;2598;52.364;9.772;2022-08-03T02:39:59;9.07;;;3.20;;
5157;SDS011;2598;52.364;9.772;2022-08-03T02:42:26;8.23;;;2.57;;
5157;SDS011;2598;52.364;9.772;2022-08-03T02:44:54;9.53;;;2.83;;
5157;SDS011;2598;52.364;9.772;2022-08-03T02:47:21;10.33;;;3.10;;
5157;SDS011;2598;52.364;9.772;2022-08-03T02:49:47;8.57;;;2.83;;
5157;SDS011;2598;52.364;9.772;2022-08-03T02:52:14;9.07;;;3.30;;
5157;SDS011;2598;52.364;9.772;2022-08-03T02:54:42;9.60;;;3.20;;
5157;SDS011;2598;52.364;9.772;2022-08-03T02:57:08;8.30;;;2.60;;
5157;SDS011;2598;52.364;9.772;2022-08-03T02:59:35;10.37;;;3.20;;
5157;SDS011;2598;52.364;9.772;2022-08-03T03:02:02;9.07;;;2.93;;
5157;SDS011;2598;52.364;9.772;2022-08-03T03:04:28;8.90;;;3.27;;
5157;SDS011;2598;52.364;9.772;2022-08-03T03:06:55;10.00;;;3.37;;
5157;SDS011;2598;52.364;9.772;2022-08-03T03:09:21;8.63;;;2.80;;
5157;SDS011;2598;52.364;9.772;2022-08-03T03:11:48;10.83;;;2.93;;
5157;SDS011;2598;52.364;9.772;2022-08-03T03:14:15;8.50;;;3.10;;
5157;SDS011;2598;52.364;9.772;2022-08-03T03:16:42;11.20;;;2.90;;
5157;SDS011;2598;52.364;9.772;2022-08-03T03:19:09;9.93;;;2.70;;
5157;SDS011;2598;52.364;9.772;2022-08-03T03:21:36;8.70;;;3.00;;
5157;SDS011;2598;52.364;9.772;2022-08-03T03:24:02;9.80;;;3.27;;
5157;SDS011;2598;52.364;9.772;2022-08-03T03:26:28;12.50;;;3.10;;
5157;SDS011;2598;52.364;9.772;2022-08-03T03:28:54;8.50;;;2.90;;
5157;SDS011;2598;52.364;9.772;2022-08-03T03:31:21;10.73;;;3.17;;
5157;SDS011;2598;52.364;9.772;2022-08-03T03:33:47;9.20;;;3.23;;
5157;SDS011;2598;52.364;9.772;2022-08-03T03:36:13;10.50;;;2.90;;
5157;SDS011;2598;52.364;9.772;2022-08-03T03:38:39;9.30;;;2.63;;
5157;SDS011;2598;52.364;9.772;2022-08-03T03:41:05;8.60;;;2.90;;
5157;SDS011;2598;52.364;9.772;2022-08-03T03:43:31;9.30;;;3.07;;
5157;SDS011;2598;52.364;9.772;2022-08-03T03:45:57;9.47;;;3.10;;
5157;SDS011;2598;52.364;9.772;2022-08-03T03:48:23;9.33;;;3.17;;
5157;SDS011;2598;52.364;9.772;2022-08-03T03:50:50;10.53;;;2.90;;
5157;SDS011;2598;52.364;9.772;2022-08-03T03:53:16;11.63;;;3.40;;
5157;SDS011;2598;52.364;9.772;2022-08-03T03:55:42;9.37;;;3.03;;
5157;SDS011;2598;52.364;9.772;2022-08-03T03:58:08;10.60;;;3.00;;
5157;SDS011;2598;52.364;9.772;2022-08-03T04:00:34;10.20;;;3.40;;
5157;SDS011;2598;52.364;9.772;2022-08-03T04:03:00;10.17;;;2.80;;
5157;SDS011;2598;52.364;9.772;2022-08-03T04:05:26;8.70;;;2.93;;
5157;SDS011;2598;52.364;9.772;2022-08-03T04:08:17;9.83;;;3.30;;
5157;SDS011;2598;52.364;9.772;2022-08-03T04:11:10;11.07;;;3.30;;
5157;SDS011;2598;52.364;9.772;2022-08-03T04:13:42;13.40;;;2.83;;
5157;SDS011;2598;52.364;9.772;2022-08-03T04:16:09;8.93;;;2.83;;
5157;SDS011;2598;52.364;9.772;2022-08-03T04:18:37;9.90;;;2.90;;
5157;SDS011;2598;52.364;9.772;2022-08-03T04:21:05;8.87;;;3.00;;
5157;SDS011;2598;52.364;9.772;2022-08-03T04:23:33;26.13;;;4.00;;
5157;SDS011;2598;52.364;9.772;2022-08-03T04:26:01;18.57;;;3.00;;
5157;SDS011;2598;52.364;9.772;2022-08-03T04:28:27;10.90;;;3.30;;
5157;SDS011;2598;52.364;9.772;2022-08-03T04:30:55;12.27;;;3.10;;
5157;SDS011;2598;52.364;9.772;2022-08-03T04:33:21;11.53;;;3.13;;
5157;SDS011;2598;52.364;9.772;2022-08-03T04:35:49;10.30;;;3.17;;
5157;SDS011;2598;52.364;9.772;2022-08-03T04:38:17;8.50;;;2.80;;
5157;SDS011;2598;52.364;9.772;2022-08-03T04:40:43;10.90;;;3.10;;
5157;SDS011;2598;52.364;9.772;2022-08-03T04:43:12;10.50;;;2.90;;
5157;SDS011;2598;52.364;9.772;2022-08-03T04:45:39;8.67;;;2.70;;
5157;SDS011;2598;52.364;9.772;2022-08-03T04:48:06;9.80;;;3.47;;
5157;SDS011;2598;52.364;9.772;2022-08-03T04:50:32;11.00;;;3.40;;
5157;SDS011;2598;52.364;9.772;2022-08-03T04:52:58;8.93;;;2.70;;
5157;SDS011;2598;52.364;9.772;2022-08-03T04:55:27;8.47;;;2.87;;
5157;SDS011;2598;52.364;9.772;2022-08-03T04:57:54;9.53;;;2.90;;
5157;SDS011;2598;52.364;9.772;2022-08-03T05:00:20;9.07;;;2.77;;
5157;SDS011;2598;52.364;9.772;2022-08-03T05:02:46;8.83;;;3.27;;
5157;SDS011;2598;52.364;9.772;2022-08-03T05:05:12;8.07;;;2.63;;
5157;SDS011;2598;52.364;9.772;2022-08-03T05:07:39;8.80;;;2.70;;
5157;SDS011;2598;52.364;9.772;2022-08-03T05:10:06;10.53;;;2.57;;
5157;SDS011;2598;52.364;9.772;2022-08-03T05:12:33;10.97;;;2.70;;
5157;SDS011;2598;52.364;9.772;2022-08-03T05:14:59;9.10;;;2.30;;
5157;SDS011;2598;52.364;9.772;2022-08-03T05:17:25;9.17;;;2.67;;
5157;SDS011;2598;52.364;9.772;2022-08-03T05:19:52;10.30;;;2.70;;
5157;SDS011;2598;52.364;9.772;2022-08-03T05:22:18;11.53;;;2.60;;
5157;SDS011;2598;52.364;9.772;2022-08-03T05:24:44;8.67;;;2.67;;
5157;SDS011;2598;52.364;9.772;2022-08-03T05:27:10;8.83;;;3.07;;
5157;SDS011;2598;52.364;9.772;2022-08-03T05:29:41;10.07;;;2.77;;
5157;SDS011;2598;52.364;9.772;2022-08-03T05:32:07;11.57;;;3.00;;
5157;SDS011;2598;52.364;9.772;2022-08-03T05:34:33;9.60;;;3.10;;
5157;SDS011;2598;52.364;9.772;2022-08-03T05:36:59;9.03;;;2.77;;
5157;SDS011;2598;52.364;9.772;2022-08-03T05:39:25;8.30;;;2.43;;
5157;SDS011;2598;52.364;9.772;2022-08-03T05:41:51;9.77;;;2.70;;
5157;SDS011;2598;52.364;9.772;2022-08-03T05:44:17;10.17;;;3.03;;
5157;SDS011;2598;52.364;9.772;2022-08-03T05:46:43;9.40;;;2.57;;
5157;SDS011;2598;52.364;9.772;2022-08-03T05:49:09;16.60;;;3.10;;
5157;SDS011;2598;52.364;9.772;2022-08-03T05:51:35;8.33;;;2.53;;
5157;SDS011;2598;52.364;9.772;2022-08-03T05:54:01;12.97;;;3.20;;
5157;SDS011;2598;52.364;9.772;2022-08-03T05:56:27;10.10;;;2.90;;
5157;SDS011;2598;52.364;9.772;2022-08-03T05:58:53;7.93;;;2.80;;
5157;SDS011;2598;52.364;9.772;2022-08-03T06:01:19;18.17;;;3.23;;
5157;SDS011;2598;52.364;9.772;2022-08-03T06:03:47;9.90;;;2.93;;
5157;SDS011;2598;52.364;9.772;2022-08-03T06:06:13;10.03;;;2.87;;
5157;SDS011;2598;52.364;9.772;2022-08-03T06:08:40;10.43;;;3.20;;
5157;SDS011;2598;52.364;9.772;2022-08-03T06:11:06;11.20;;;2.70;;
5157;SDS011;2598;52.364;9.772;2022-08-03T06:13:32;8.30;;;2.13;;
5157;SDS011;2598;52.364;9.772;2022-08-03T06:15:58;12.90;;;3.17;;
5157;SDS011;2598;52.364;9.772;2022-08-03T06:18:24;10.40;;;3.10;;
5157;SDS011;2598;52.364;9.772;2022-08-03T06:20:50;7.90;;;2.70;;
5157;SDS011;2598;52.364;9.772;2022-08-03T06:23:16;9.20;;;2.80;;
5157;SDS011;2598;52.364;9.772;2022-08-03T06:25:42;16.80;;;2.63;;
5157;SDS011;2598;52.364;9.772;2022-08-03T06:28:08;9.27;;;3.23;;
5157;SDS011;2598;52.364;9.772;2022-08-03T06:30:34;8.07;;;2.60;;
5157;SDS011;2598;52.364;9.772;2022-08-03T06:33:00;8.90;;;2.33;;
5157;SDS011;2598;52.364;9.772;2022-08-03T06:35:26;9.00;;;3.10;;
5157;SDS011;2598;52.364;9.772;2022-08-03T06:37:53;8.80;;;2.77;;
5157;SDS011;2598;52.364;9.772;2022-08-03T06:40:20;8.77;;;2.70;;
5157;SDS011;2598;52.364;9.772;2022-08-03T06:42:54;7.80;;;2.57;;
5157;SDS011;2598;52.364;9.772;2022-08-03T06:45:20;8.60;;;2.60;;
5157;SDS011;2598;52.364;9.772;2022-08-03T06:47:46;7.93;;;2.50;;
5157;SDS011;2598;52.364;9.772;2022-08-03T06:50:12;9.10;;;2.90;;
5157;SDS011;2598;52.364;9.772;2022-08-03T06:52:38;8.50;;;2.70;;
5157;SDS011;2598;52.364;9.772;2022-08-03T06:55:04;9.70;;;3.03;;
5157;SDS011;2598;52.364;9.772;2022-08-03T06:57:30;9.43;;;2.87;;
5157;SDS011;2598;52.364;9.772;2022-08-03T06:59:57;9.00;;;2.90;;
5157;SDS011;2598;52.364;9.772;2022-08-03T07:02:26;8.23;;;2.47;;
5157;SDS011;2598;52.364;9.772;2022-08-03T07:04:52;8.17;;;2.43;;
5157;SDS011;2598;52.364;9.772;2022-08-03T07:07:18;11.40;;;2.50;;
5157;SDS011;2598;52.364;9.772;2022-08-03T07:09:44;9.10;;;2.57;;
5157;SDS011;2598;52.364;9.772;2022-08-03T07:12:12;9.47;;;2.70;;
5157;SDS011;2598;52.364;9.772;2022-08-03T07:14:38;8.97;;;2.33;;
5157;SDS011;2598;52.364;9.772;2022-08-03T07:17:03;8.30;;;2.37;;
5157;SDS011;2598;52.364;9.772;2022-08-03T07:19:29;8.77;;;2.20;;
5157;SDS011;2598;52.364;9.772;2022-08-03T07:21:55;8.17;;;1.97;;
5157;SDS011;2598;52.364;9.772;2022-08-03T07:24:22;9.00;;;2.33;;
5157;SDS011;2598;52.364;9.772;2022-08-03T07:26:48;9.20;;;2.73;;
5157;SDS011;2598;52.364;9.772;2022-08-03T07:29:14;8.20;;;2.07;;
5157;SDS011;2598;52.364;9.772;2022-08-03T07:31:41;9.30;;;2.67;;
5157;SDS011;2598;52.364;9.772;2022-08-03T07:34:07;8.63;;;2.57;;
5157;SDS011;2598;52.364;9.772;2022-08-03T07:36:33;7.70;;;2.33;;
5157;SDS011;2598;52.364;9.772;2022-08-03T07:38:59;9.17;;;2.40;;
5157;SDS011;2598;52.364;9.772;2022-08-03T07:41:25;10.30;;;2.27;;
5157;SDS011;2598;52.364;9.772;2022-08-03T07:43:51;9.97;;;2.50;;
5157;SDS011;2598;52.364;9.772;2022-08-03T07:46:17;7.77;;;2.27;;
5157;SDS011;2598;52.364;9.772;2022-08-03T07:48:43;10.20;;;2.33;;
5157;SDS011;2598;52.364;9.772;2022-08-03T07:51:09;13.10;;;2.50;;
5157;SDS011;2598;52.364;9.772;2022-08-03T07:53:34;8.30;;;2.50;;
5157;SDS011;2598;52.364;9.772;2022-08-03T07:56:00;11.63;;;2.50;;
5157;SDS011;2598;52.364;9.772;2022-08-03T07:58:26;7.70;;;2.30;;
5157;SDS011;2598;52.364;9.772;2022-08-03T08:00:52;8.60;;;2.07;;
5157;SDS011;2598;52.364;9.772;2022-08-03T08:03:19;7.90;;;1.93;;
5157;SDS011;2598;52.364;9.772;2022-08-03T08:05:45;7.83;;;2.10;;
5157;SDS011;2598;52.364;9.772;2022-08-03T08:08:11;9.20;;;2.50;;
5157;SDS011;2598;52.364;9.772;2022-08-03T08:10:37;8.10;;;1.90;;
5157;SDS011;2598;52.364;9.772;2022-08-03T08:13:04;9.13;;;2.70;;
5157;SDS011;2598;52.364;9.772;2022-08-03T08:15:30;8.50;;;2.43;;
5157;SDS011;2598;52.364;9.772;2022-08-03T08:17:57;8.83;;;2.30;;
5157;SDS011;2598;52.364;9.772;2022-08-03T08:20:27;8.00;;;2.17;;
5157;SDS011;2598;52.364;9.772;2022-08-03T08:22:57;7.83;;;2.40;;
5157;SDS011;2598;52.364;9.772;2022-08-03T08:25:24;7.63;;;2.40;;
5157;SDS011;2598;52.364;9.772;2022-08-03T08:27:50;8.50;;;2.40;;
5157;SDS011;2598;52.364;9.772;2022-08-03T08:30:18;9.70;;;2.13;;
5157;SDS011;2598;52.364;9.772;2022-08-03T08:32:44;10.60;;;1.87;;
5157;SDS011;2598;52.364;9.772;2022-08-03T08:35:10;9.77;;;2.57;;
5157;SDS011;2598;52.364;9.772;2022-08-03T08:37:37;10.47;;;2.07;;
5157;SDS011;2598;52.364;9.772;2022-08-03T08:40:04;7.07;;;1.97;;
5157;SDS011;2598;52.364;9.772;2022-08-03T08:42:30;7.80;;;1.90;;
5157;SDS011;2598;52.364;9.772;2022-08-03T08:44:57;7.90;;;1.70;;
5157;SDS011;2598;52.364;9.772;2022-08-03T08:47:29;8.63;;;2.40;;
5157;SDS011;2598;52.364;9.772;2022-08-03T08:49:56;8.57;;;1.90;;
5157;SDS011;2598;52.364;9.772;2022-08-03T08:52:26;8.63;;;1.90;;
5157;SDS011;2598;52.364;9.772;2022-08-03T08:54:57;7.43;;;2.00;;
5157;SDS011;2598;52.364;9.772;2022-08-03T08:57:28;9.60;;;1.93;;
5157;SDS011;2598;52.364;9.772;2022-08-03T08:59:55;11.80;;;2.37;;
5157;SDS011;2598;52.364;9.772;2022-08-03T09:02:24;7.77;;;1.93;;
5157;SDS011;2598;52.364;9.772;2022-08-03T09:04:50;9.13;;;2.20;;
5157;SDS011;2598;52.364;9.772;2022-08-03T09:07:16;8.60;;;1.90;;
5157;SDS011;2598;52.364;9.772;2022-08-03T09:09:42;11.90;;;2.10;;
5157;SDS011;2598;52.364;9.772;2022-08-03T09:12:08;11.33;;;1.90;;
5157;SDS011;2598;52.364;9.772;2022-08-03T09:14:34;9.63;;;1.80;;
5157;SDS011;2598;52.364;9.772;2022-08-03T09:17:01;9.37;;;2.13;;
5157;SDS011;2598;52.364;9.772;2022-08-03T09:19:31;9.10;;;2.20;;
5157;SDS011;2598;52.364;9.772;2022-08-03T09:22:10;7.67;;;1.87;;
5157;SDS011;2598;52.364;9.772;2022-08-03T09:24:37;12.13;;;2.40;;
5157;SDS011;2598;52.364;9.772;2022-08-03T09:27:10;7.90;;;1.83;;
5157;SDS011;2598;52.364;9.772;2022-08-03T09:29:37;7.43;;;1.67;;
5157;SDS011;2598;52.364;9.772;2022-08-03T09:32:03;9.70;;;1.90;;
5157;SDS011;2598;52.364;9.772;2022-08-03T09:34:29;20.77;;;1.90;;
5157;SDS011;2598;52.364;9.772;2022-08-03T09:36:56;9.37;;;2.27;;
5157;SDS011;2598;52.364;9.772;2022-08-03T09:39:26;9.57;;;2.20;;
5157;SDS011;2598;52.364;9.772;2022-08-03T09:42:06;10.20;;;2.20;;
5157;SDS011;2598;52.364;9.772;2022-08-03T09:44:41;13.30;;;2.00;;
5157;SDS011;2598;52.364;9.772;2022-08-03T09:47:08;9.50;;;2.30;;
5157;SDS011;2598;52.364;9.772;2022-08-03T09:49:35;10.53;;;2.10;;
5157;SDS011;2598;52.364;9.772;2022-08-03T09:52:10;8.40;;;1.70;;
5157;SDS011;2598;52.364;9.772;2022-08-03T09:54:36;8.07;;;1.87;;
5157;SDS011;2598;52.364;9.772;2022-08-03T09:57:03;8.60;;;2.17;;
5157;SDS011;2598;52.364;9.772;2022-08-03T09:59:29;7.50;;;1.90;;
5157;SDS011;2598;52.364;9.772;2022-08-03T10:01:56;15.33;;;1.90;;
5157;SDS011;2598;52.364;9.772;2022-08-03T10:04:23;9.07;;;1.87;;
5157;SDS011;2598;52.364;9.772;2022-08-03T10:07:05;8.17;;;1.77;;
5157;SDS011;2598;52.364;9.772;2022-08-03T10:09:31;10.93;;;1.80;;
5157;SDS011;2598;52.364;9.772;2022-08-03T10:12:05;8.40;;;2.30;;
5157;SDS011;2598;52.364;9.772;2022-08-03T10:14:32;9.70;;;3.10;;
5157;SDS011;2598;52.364;9.772;2022-08-03T10:16:58;8.47;;;1.87;;
5157;SDS011;2598;52.364;9.772;2022-08-03T10:19:24;11.07;;;1.87;;
5157;SDS011;2598;52.364;9.772;2022-08-03T10:21:58;8.30;;;1.93;;
5157;SDS011;2598;52.364;9.772;2022-08-03T10:24:27;8.63;;;2.00;;
5157;SDS011;2598;52.364;9.772;2022-08-03T10:27:00;13.13;;;2.67;;
5157;SDS011;2598;52.364;9.772;2022-08-03T10:29:27;6.80;;;1.70;;
5157;SDS011;2598;52.364;9.772;2022-08-03T10:31:55;10.17;;;2.00;;
5157;SDS011;2598;52.364;9.772;2022-08-03T10:34:24;8.53;;;2.23;;
5157;SDS011;2598;52.364;9.772;2022-08-03T10:36:51;7.87;;;2.10;;
5157;SDS011;2598;52.364;9.772;2022-08-03T10:39:18;10.93;;;2.17;;
5157;SDS011;2598;52.364;9.772;2022-08-03T10:41:46;7.93;;;2.03;;
5157;SDS011;2598;52.364;9.772;2022-08-03T10:44:15;6.97;;;1.87;;
5157;SDS011;2598;52.364;9.772;2022-08-03T10:46:42;10.10;;;2.40;;
5157;SDS011;2598;52.364;9.772;2022-08-03T10:49:11;9.60;;;2.30;;
5157;SDS011;2598;52.364;9.772;2022-08-03T10:51:37;8.53;;;1.83;;
5157;SDS011;2598;52.364;9.772;2022-08-03T10:54:04;6.80;;;1.87;;
5157;SDS011;2598;52.364;9.772;2022-08-03T10:59:18;9.13;;;2.07;;
5157;SDS011;2598;52.364;9.772;2022-08-03T11:01:51;11.00;;;1.90;;
5157;SDS011;2598;52.364;9.772;2022-08-03T11:04:18;10.43;;;2.10;;
5157;SDS011;2598;52.364;9.772;2022-08-03T11:06:45;13.47;;;2.37;;
5157;SDS011;2598;52.364;9.772;2022-08-03T11:11:38;8.73;;;2.30;;
5157;SDS011;2598;52.364;9.772;2022-08-03T11:14:07;6.70;;;1.70;;
5157;SDS011;2598;52.364;9.772;2022-08-03T11:16:35;9.57;;;2.37;;
5157;SDS011;2598;52.364;9.772;2022-08-03T11:19:05;8.93;;;2.07;;
5157;SDS011;2598;52.364;9.772;2022-08-03T11:37:33;6.60;;;1.77;;
5157;SDS011;2598;52.364;9.772;2022-08-03T11:39:59;8.57;;;2.53;;
5157;SDS011;2598;52.364;9.772;2022-08-03T11:44:53;7.63;;;1.90;;
5157;SDS011;2598;52.364;9.772;2022-08-03T11:47:20;7.40;;;2.03;;
5157;SDS011;2598;52.364;9.772;2022-08-03T11:49:47;11.17;;;2.00;;
5157;SDS011;2598;52.364;9.772;2022-08-03T11:52:13;8.27;;;1.80;;
5157;SDS011;2598;52.364;9.772;2022-08-03T11:54:41;11.90;;;2.10;;
5157;SDS011;2598;52.364;9.772;2022-08-03T11:57:07;9.70;;;2.07;;
5157;SDS011;2598;52.364;9.772;2022-08-03T11:59:33;8.20;;;2.37;;
5157;SDS011;2598;52.364;9.772;2022-08-03T12:02:06;8.73;;;2.43;;
5157;SDS011;2598;52.364;9.772;2022-08-03T12:04:48;7.73;;;2.10;;
5157;SDS011;2598;52.364;9.772;2022-08-03T12:07:14;6.93;;;1.83;;
5157;SDS011;2598;52.364;9.772;2022-08-03T12:09:41;9.80;;;2.40;;
5157;SDS011;2598;52.364;9.772;2022-08-03T12:12:07;7.27;;;1.97;;
5157;SDS011;2598;52.364;9.772;2022-08-03T12:14:33;7.87;;;2.20;;
5157;SDS011;2598;52.364;9.772;2022-08-03T12:16:59;6.67;;;1.70;;
5157;SDS011;2598;52.364;9.772;2022-08-03T12:19:25;7.40;;;2.07;;
5157;SDS011;2598;52.364;9.772;2022-08-03T12:21:51;7.33;;;1.90;;
5157;SDS011;2598;52.364;9.772;2022-08-03T12:24:17;8.10;;;1.80;;
5157;SDS011;2598;52.364;9.772;2022-08-03T12:26:44;7.40;;;1.80;;
5157;SDS011;2598;52.364;9.772;2022-08-03T12:29:20;7.27;;;2.00;;
5157;SDS011;2598;52.364;9.772;2022-08-03T12:31:46;8.00;;;2.00;;
5157;SDS011;2598;52.364;9.772;2022-08-03T12:34:12;7.33;;;1.80;;
5157;SDS011;2598;52.364;9.772;2022-08-03T12:36:48;10.43;;;2.33;;
5157;SDS011;2598;52.364;9.772;2022-08-03T12:39:14;6.83;;;2.03;;
5157;SDS011;2598;52.364;9.772;2022-08-03T12:41:41;9.07;;;2.43;;
5157;SDS011;2598;52.364;9.772;2022-08-03T12:44:07;8.87;;;2.23;;
5157;SDS011;2598;52.364;9.772;2022-08-03T12:46:37;7.77;;;2.20;;
5157;SDS011;2598;52.364;9.772;2022-08-03T12:49:11;7.50;;;2.20;;
5157;SDS011;2598;52.364;9.772;2022-08-03T12:54:20;7.90;;;1.83;;
5157;SDS011;2598;52.364;9.772;2022-08-03T12:57:00;10.00;;;2.00;;
5157;SDS011;2598;52.364;9.772;2022-08-03T12:59:27;8.60;;;2.07;;
5157;SDS011;2598;52.364;9.772;2022-08-03T13:01:53;8.07;;;2.13;;
5157;SDS011;2598;52.364;9.772;2022-08-03T13:04:26;10.40;;;1.70;;
5157;SDS011;2598;52.364;9.772;2022-08-03T13:06:56;8.53;;;2.40;;
5157;SDS011;2598;52.364;9.772;2022-08-03T13:09:22;7.20;;;1.97;;
5157;SDS011;2598;52.364;9.772;2022-08-03T13:12:03;9.83;;;2.10;;
5157;SDS011;2598;52.364;9.772;2022-08-03T13:14:29;6.97;;;1.73;;
5157;SDS011;2598;52.364;9.772;2022-08-03T13:16:55;9.20;;;2.33;;
5157;SDS011;2598;52.364;9.772;2022-08-03T13:19:21;11.03;;;2.23;;
5157;SDS011;2598;52.364;9.772;2022-08-03T13:21:47;7.97;;;1.80;;
5157;SDS011;2598;52.364;9.772;2022-08-03T13:24:13;7.33;;;2.13;;
5157;SDS011;2598;52.364;9.772;2022-08-03T13:26:39;8.13;;;1.80;;
5157;SDS011;2598;52.364;9.772;2022-08-03T13:29:05;6.93;;;1.93;;
5157;SDS011;2598;52.364;9.772;2022-08-03T13:31:31;8.00;;;2.10;;
5157;SDS011;2598;52.364;9.772;2022-08-03T13:33:57;11.00;;;2.10;;
5157;SDS011;2598;52.364;9.772;2022-08-03T13:36:23;7.77;;;2.20;;
5157;SDS011;2598;52.364;9.772;2022-08-03T13:38:49;7.10;;;2.00;;
5157;SDS011;2598;52.364;9.772;2022-08-03T13:41:15;10.30;;;2.83;;
5157;SDS011;2598;52.364;9.772;2022-08-03T13:43:41;7.90;;;1.77;;
5157;SDS011;2598;52.364;9.772;2022-08-03T13:46:07;7.50;;;1.90;;
5157;SDS011;2598;52.364;9.772;2022-08-03T13:48:33;7.60;;;2.13;;
5157;SDS011;2598;52.364;9.772;2022-08-03T13:50:59;7.37;;;2.13;;
5157;SDS011;2598;52.364;9.772;2022-08-03T13:53:25;7.70;;;2.20;;
5157;SDS011;2598;52.364;9.772;2022-08-03T13:55:51;7.97;;;2.03;;
5157;SDS011;2598;52.364;9.772;2022-08-03T13:58:17;7.10;;;1.73;;
5157;SDS011;2598;52.364;9.772;2022-08-03T14:00:43;7.47;;;1.87;;
5157;SDS011;2598;52.364;9.772;2022-08-03T14:03:09;11.13;;;2.10;;
5157;SDS011;2598;52.364;9.772;2022-08-03T14:05:35;7.53;;;2.10;;
5157;SDS011;2598;52.364;9.772;2022-08-03T14:08:02;11.23;;;2.30;;
5157;SDS011;2598;52.364;9.772;2022-08-03T14:10:31;7.33;;;2.20;;
5157;SDS011;2598;52.364;9.772;2022-08-03T14:12:57;7.33;;;1.87;;
5157;SDS011;2598;52.364;9.772;2022-08-03T14:15:24;8.43;;;2.00;;
5157;SDS011;2598;52.364;9.772;2022-08-03T14:17:50;6.97;;;1.50;;
5157;SDS011;2598;52.364;9.772;2022-08-03T14:20:16;7.50;;;1.60;;
5157;SDS011;2598;52.364;9.772;2022-08-03T14:22:42;7.67;;;1.70;;
5157;SDS011;2598;52.364;9.772;2022-08-03T14:25:08;7.80;;;1.83;;
5157;SDS011;2598;52.364;9.772;2022-08-03T14:27:34;10.77;;;2.10;;
5157;SDS011;2598;52.364;9.772;2022-08-03T14:30:01;7.00;;;2.00;;
5157;SDS011;2598;52.364;9.772;2022-08-03T14:32:27;9.33;;;1.90;;
5157;SDS011;2598;52.364;9.772;2022-08-03T14:34:53;8.00;;;1.90;;
5157;SDS011;2598;52.364;9.772;2022-08-03T14:37:19;8.57;;;1.97;;
5157;SDS011;2598;52.364;9.772;2022-08-03T14:39:45;7.20;;;1.73;;
5157;SDS011;2598;52.364;9.772;2022-08-03T14:42:11;7.00;;;1.90;;
5157;SDS011;2598;52.364;9.772;2022-08-03T14:44:37;7.70;;;1.90;;
5157;SDS011;2598;52.364;9.772;2022-08-03T14:47:03;7.67;;;1.80;;
5157;SDS011;2598;52.364;9.772;2022-08-03T14:49:29;8.97;;;1.90;;
5157;SDS011;2598;52.364;9.772;2022-08-03T14:51:56;7.20;;;2.10;;
5157;SDS011;2598;52.364;9.772;2022-08-03T14:54:22;8.20;;;1.90;;
5157;SDS011;2598;52.364;9.772;2022-08-03T14:56:49;8.00;;;2.00;;
5157;SDS011;2598;52.364;9.772;2022-08-03T14:59:15;8.40;;;1.80;;
5157;SDS011;2598;52.364;9.772;2022-08-03T15:01:41;7.67;;;2.40;;
5157;SDS011;2598;52.364;9.772;2022-08-03T15:04:07;7.63;;;2.57;;
5157;SDS011;2598;52.364;9.772;2022-08-03T15:06:33;6.90;;;2.00;;
5157;SDS011;2598;52.364;9.772;2022-08-03T15:09:00;12.10;;;2.00;;
5157;SDS011;2598;52.364;9.772;2022-08-03T15:11:26;8.03;;;2.20;;
5157;SDS011;2598;52.364;9.772;2022-08-03T15:13:52;7.13;;;2.03;;
5157;SDS011;2598;52.364;9.772;2022-08-03T15:16:18;7.07;;;1.80;;
5157;SDS011;2598;52.364;9.772;2022-08-03T15:18:44;14.50;;;2.20;;
5157;SDS011;2598;52.364;9.772;2022-08-03T15:21:10;8.83;;;2.30;;
5157;SDS011;2598;52.364;9.772;2022-08-03T15:23:36;10.40;;;2.00;;
5157;SDS011;2598;52.364;9.772;2022-08-03T15:26:05;7.93;;;2.00;;
5157;SDS011;2598;52.364;9.772;2022-08-03T15:28:31;9.30;;;2.70;;
5157;SDS011;2598;52.364;9.772;2022-08-03T15:30:57;8.73;;;1.93;;
5157;SDS011;2598;52.364;9.772;2022-08-03T15:33:23;9.80;;;2.20;;
5157;SDS011;2598;52.364;9.772;2022-08-03T15:35:49;6.90;;;1.80;;
5157;SDS011;2598;52.364;9.772;2022-08-03T15:38:15;7.27;;;2.10;;
5157;SDS011;2598;52.364;9.772;2022-08-03T15:40:41;8.03;;;1.93;;
5157;SDS011;2598;52.364;9.772;2022-08-03T15:43:07;7.50;;;1.80;;
5157;SDS011;2598;52.364;9.772;2022-08-03T15:45:34;6.97;;;1.73;;
5157;SDS011;2598;52.364;9.772;2022-08-03T15:48:00;7.20;;;2.17;;
5157;SDS011;2598;52.364;9.772;2022-08-03T15:50:25;7.83;;;1.97;;
5157;SDS011;2598;52.364;9.772;2022-08-03T15:52:51;6.93;;;2.10;;